createdAt,value
2023-05-13T00:03:53.591Z,3.80
2023-05-13T00:08:57.177Z,4.25
2023-05-13T00:14:00.341Z,3.28
2023-05-13T00:19:03.973Z,4.00
2023-05-13T00:24:08.197Z,2.35
2023-05-13T00:29:12.382Z,1.95
2023-05-13T00:34:15.577Z,1.75
2023-05-13T00:39:19.001Z,2.42
2023-05-13T00:44:23.049Z,3.10
2023-05-13T00:49:26.599Z,2.50
2023-05-13T00:54:30.331Z,2.00
2023-05-13T00:59:34.130Z,2.05
2023-05-13T01:04:46.796Z,1.73
2023-05-13T01:10:09.052Z,2.15
2023-05-13T01:15:26.296Z,2.25
2023-05-13T01:20:32.148Z,2.47
2023-05-13T01:25:36.409Z,3.90
2023-05-13T01:30:40.165Z,4.00
2023-05-13T01:35:48.224Z,2.72
2023-05-13T01:40:55.181Z,2.63
2023-05-13T01:46:00.799Z,3.47
2023-05-13T01:51:04.972Z,1.80
2023-05-13T01:56:12.219Z,2.13
2023-05-13T02:01:16.680Z,1.45
2023-05-13T02:06:19.938Z,1.60
2023-05-13T02:11:24.140Z,2.33
2023-05-13T02:16:27.645Z,1.58
2023-05-13T02:21:31.738Z,2.33
2023-05-13T02:26:35.375Z,2.50
2023-05-13T02:31:39.095Z,1.33
2023-05-13T02:36:42.976Z,4.28
2023-05-13T02:41:47.470Z,1.10
2023-05-13T02:46:51.956Z,1.67
2023-05-13T02:51:57.645Z,1.00
2023-05-13T02:57:08.482Z,1.23
2023-05-13T03:02:11.915Z,1.40
2023-05-13T03:07:15.748Z,2.55
2023-05-13T03:12:19.512Z,1.83
2023-05-13T03:17:25.166Z,1.63
2023-05-13T03:22:28.688Z,1.58
2023-05-13T03:27:32.292Z,4.07
2023-05-13T03:32:36.865Z,2.85
2023-05-13T03:37:41.156Z,2.83
2023-05-13T03:42:45.648Z,3.65
2023-05-13T03:47:51.103Z,3.28
2023-05-13T03:52:57.246Z,2.90
2023-05-13T03:58:00.863Z,3.22
2023-05-13T04:03:04.872Z,1.65
2023-05-13T04:08:09.036Z,3.55
2023-05-13T04:13:14.928Z,6.27
2023-05-13T04:18:20.247Z,4.95
2023-05-13T04:23:24.029Z,2.15
2023-05-13T04:28:27.848Z,5.97
2023-05-13T04:33:31.033Z,4.15
2023-05-13T04:38:35.157Z,5.22
2023-05-13T04:43:39.390Z,8.45
2023-05-13T04:48:43.298Z,3.97
2023-05-13T04:53:47.957Z,12.15
2023-05-13T04:58:51.502Z,5.70
2023-05-13T05:03:56.128Z,8.02
2023-05-13T05:08:59.955Z,7.93
2023-05-13T05:14:03.712Z,8.07
2023-05-13T05:19:07.800Z,14.25
2023-05-13T05:24:12.396Z,9.38
2023-05-13T05:29:16.376Z,16.33
2023-05-13T05:34:20.840Z,18.38
2023-05-13T05:39:25.476Z,21.60
2023-05-13T05:44:29.280Z,14.80
2023-05-13T05:49:34.519Z,11.30
2023-05-13T05:54:38.582Z,14.75
2023-05-13T05:59:42.764Z,12.80
2023-05-13T06:04:46.901Z,13.43
2023-05-13T06:09:50.606Z,11.18
2023-05-13T06:14:55.067Z,8.90
2023-05-13T06:19:59.117Z,10.15
2023-05-13T06:25:02.944Z,10.07
2023-05-13T06:30:07.369Z,6.85
2023-05-13T06:35:10.799Z,8.05
2023-05-13T06:40:14.940Z,8.98
2023-05-13T06:45:23.686Z,5.35
2023-05-13T06:50:27.693Z,10.20
2023-05-13T06:55:31.169Z,8.07
2023-05-13T07:00:38.435Z,6.63
2023-05-13T07:05:42.865Z,7.20
2023-05-13T07:10:47.071Z,5.15
2023-05-13T07:15:51.013Z,12.63
2023-05-13T07:20:54.955Z,17.33
2023-05-13T07:25:58.796Z,12.73
2023-05-13T07:31:02.551Z,11.10
2023-05-13T07:36:06.900Z,8.60
2023-05-13T07:41:11.199Z,10.75
2023-05-13T07:46:15.221Z,9.93
2023-05-13T07:51:18.710Z,10.02
2023-05-13T07:56:22.282Z,9.82
2023-05-13T08:01:26.193Z,11.23
2023-05-13T08:06:29.481Z,12.55
2023-05-13T08:11:33.087Z,12.52
2023-05-13T08:16:36.695Z,13.85
2023-05-13T08:21:40.256Z,17.30
2023-05-13T08:26:43.844Z,11.60
2023-05-13T08:31:47.971Z,16.15
2023-05-13T08:36:51.578Z,16.02
2023-05-13T08:41:58.261Z,14.95
2023-05-13T08:47:24.557Z,21.20
2023-05-13T08:52:28.591Z,22.75
2023-05-13T08:57:31.700Z,23.58
2023-05-13T09:02:35.446Z,16.83
2023-05-13T09:07:40.347Z,13.13
2023-05-13T09:12:49.602Z,12.93
2023-05-13T09:17:56.179Z,16.38
2023-05-13T09:23:09.078Z,9.43
2023-05-13T09:28:15.728Z,11.73
2023-05-13T09:33:20.514Z,10.50
2023-05-13T09:38:29.811Z,11.43
2023-05-13T09:43:33.781Z,10.30
2023-05-13T09:48:38.578Z,10.30
2023-05-13T09:53:42.277Z,13.55
2023-05-13T09:58:53.250Z,18.20
2023-05-13T10:03:59.795Z,13.40
2023-05-13T10:09:05.279Z,13.18
2023-05-13T10:14:09.455Z,11.38
2023-05-13T10:19:13.840Z,12.23
2023-05-13T10:24:17.193Z,11.13
2023-05-13T10:29:23.837Z,12.60
2023-05-13T10:39:50.808Z,10.77
2023-05-13T10:44:59.177Z,8.55
2023-05-13T10:50:31.419Z,9.45
2023-05-13T10:55:41.621Z,11.30
2023-05-13T11:00:48.706Z,10.07
2023-05-13T11:06:16.172Z,10.77
2023-05-13T11:11:28.537Z,8.50
2023-05-13T11:16:34.308Z,14.73
2023-05-13T11:21:40.446Z,10.05
2023-05-13T11:26:54.560Z,8.57
2023-05-13T11:32:06.807Z,7.30
2023-05-13T11:37:12.317Z,6.05
2023-05-13T11:42:18.552Z,8.00
2023-05-13T11:52:41.583Z,8.13
2023-05-13T11:57:50.905Z,7.35
2023-05-13T12:02:57.070Z,5.05
2023-05-13T12:08:03.219Z,11.38
2023-05-13T12:13:09.860Z,7.93
2023-05-13T12:18:16.938Z,6.90
2023-05-13T12:23:23.424Z,6.03
2023-05-13T12:28:30.947Z,8.32
2023-05-13T12:39:02.473Z,5.15
2023-05-13T12:44:10.023Z,4.70
2023-05-13T12:49:16.038Z,7.93
2023-05-13T12:54:19.410Z,8.20
2023-05-13T12:59:23.311Z,4.10
2023-05-13T13:04:26.989Z,5.90
2023-05-13T13:09:30.649Z,7.60
2023-05-13T13:14:33.991Z,5.25
2023-05-13T13:19:37.695Z,3.58
2023-05-13T13:24:41.496Z,6.57
2023-05-13T13:29:45.945Z,6.20
2023-05-13T13:34:49.458Z,7.10
2023-05-13T13:39:52.597Z,5.93
2023-05-13T13:44:56.863Z,4.75
2023-05-13T13:50:00.560Z,4.00
2023-05-13T13:55:04.000Z,7.07
2023-05-13T14:00:08.588Z,8.77
2023-05-13T14:05:13.554Z,6.70
2023-05-13T14:10:16.787Z,6.57
2023-05-13T14:15:20.564Z,6.00
2023-05-13T14:20:25.372Z,5.28
2023-05-13T14:25:28.923Z,9.88
2023-05-13T14:30:32.637Z,8.63
2023-05-13T14:35:36.301Z,26.35
2023-05-13T14:40:40.138Z,13.07
2023-05-13T14:45:43.748Z,14.90
2023-05-13T14:50:47.491Z,20.98
2023-05-13T14:55:51.755Z,15.23
2023-05-13T15:00:56.370Z,13.48
2023-05-13T15:06:00.097Z,10.20
2023-05-13T15:11:05.063Z,6.07
2023-05-13T15:16:08.808Z,6.45
2023-05-13T15:21:13.127Z,5.95
2023-05-13T15:26:16.803Z,11.02
2023-05-13T15:31:21.339Z,4.85
2023-05-13T15:36:25.670Z,8.63
2023-05-13T15:41:29.678Z,7.95
2023-05-13T15:46:33.852Z,8.80
2023-05-13T15:51:37.402Z,8.80
2023-05-13T15:56:42.323Z,12.18
2023-05-13T16:01:47.025Z,14.45
2023-05-13T16:06:51.202Z,9.63
2023-05-13T16:11:56.330Z,12.75
2023-05-13T16:17:01.003Z,10.88
2023-05-13T16:22:41.611Z,16.33
2023-05-13T16:27:45.052Z,13.45
2023-05-13T16:32:53.401Z,10.23
2023-05-13T16:37:57.254Z,11.88
2023-05-13T16:43:03.824Z,19.83
2023-05-13T16:48:08.552Z,16.98
2023-05-13T16:53:13.232Z,15.73
2023-05-13T16:58:17.544Z,17.95
2023-05-13T17:03:20.999Z,15.32
2023-05-13T17:08:24.762Z,17.30
2023-05-13T17:13:27.975Z,12.95
2023-05-13T17:18:31.015Z,18.63
2023-05-13T17:23:34.446Z,20.35
2023-05-13T17:28:40.557Z,15.95
2023-05-13T17:33:44.299Z,21.17
2023-05-13T17:38:49.957Z,22.45
2023-05-13T17:43:53.156Z,25.52
2023-05-13T17:48:56.410Z,21.40
2023-05-13T17:53:59.523Z,23.73
2023-05-13T17:59:02.694Z,25.85
2023-05-13T18:04:05.864Z,36.92
2023-05-13T18:09:09.031Z,29.80
2023-05-13T18:14:12.152Z,27.92
2023-05-13T18:19:15.254Z,34.15
2023-05-13T18:24:18.455Z,31.65
2023-05-13T18:29:21.551Z,28.67
2023-05-13T18:34:25.069Z,48.85
2023-05-13T18:39:28.163Z,30.48
2023-05-13T18:44:31.186Z,36.63
2023-05-13T18:49:34.395Z,43.50
2023-05-13T18:54:37.741Z,48.45
2023-05-13T18:59:41.406Z,48.60
2023-05-13T19:04:44.574Z,51.92
2023-05-13T19:09:48.663Z,35.38
2023-05-13T19:14:52.009Z,36.97
2023-05-13T19:19:55.549Z,36.28
2023-05-13T19:24:58.598Z,32.63
2023-05-13T19:30:02.101Z,31.92
2023-05-13T19:35:06.138Z,38.22
2023-05-13T19:40:09.747Z,29.77
2023-05-13T19:45:12.815Z,19.75
2023-05-13T19:50:16.314Z,25.70
2023-05-13T19:55:20.566Z,22.70
2023-05-13T20:00:24.100Z,23.35
2023-05-13T20:05:27.473Z,23.70
2023-05-13T20:10:30.999Z,17.85
2023-05-13T20:15:34.244Z,21.55
2023-05-13T20:20:37.678Z,15.60
2023-05-13T20:25:40.903Z,22.70
2023-05-13T20:30:43.928Z,16.33
2023-05-13T20:35:47.945Z,26.80
2023-05-13T20:40:51.236Z,20.35
2023-05-13T20:45:54.508Z,26.65
2023-05-13T20:51:06.162Z,23.33
2023-05-13T20:56:10.488Z,21.25
2023-05-13T21:01:13.892Z,25.73
2023-05-13T21:06:16.963Z,14.88
2023-05-13T21:11:20.084Z,16.02
2023-05-13T21:16:23.538Z,21.80
2023-05-13T21:21:26.781Z,26.02
2023-05-13T21:26:29.908Z,17.73
2023-05-13T21:31:33.047Z,14.68
2023-05-13T21:36:39.149Z,18.08
2023-05-13T21:41:42.358Z,16.43
2023-05-13T21:46:45.520Z,21.30
2023-05-13T21:51:49.027Z,18.35
2023-05-13T21:56:52.236Z,20.33
2023-05-13T22:01:55.578Z,19.55
2023-05-13T22:06:58.666Z,18.35
2023-05-13T22:12:02.322Z,20.98
2023-05-13T22:17:09.845Z,19.17
2023-05-13T22:22:13.549Z,15.23
2023-05-13T22:27:17.508Z,15.85
2023-05-13T22:32:20.744Z,21.95
2023-05-13T22:37:23.879Z,16.45
2023-05-13T22:42:27.638Z,18.00
2023-05-13T22:47:30.903Z,17.25
2023-05-13T22:52:34.127Z,18.67
2023-05-13T22:57:37.128Z,14.50
2023-05-13T23:02:40.357Z,19.48
2023-05-13T23:07:43.472Z,17.88
2023-05-13T23:12:46.609Z,19.45
2023-05-13T23:17:49.670Z,23.63
2023-05-13T23:22:52.749Z,21.42
2023-05-13T23:27:55.960Z,17.23
2023-05-13T23:32:59.318Z,21.52
2023-05-13T23:38:02.772Z,18.65
2023-05-13T23:43:06.000Z,15.80
2023-05-13T23:48:09.270Z,19.08
2023-05-13T23:53:12.582Z,12.10
2023-05-13T23:58:15.815Z,25.20
